createdAt,value
2018-05-21T00:02:17.012Z,1.60
2018-05-21T00:04:44.257Z,1.90
2018-05-21T00:07:11.542Z,1.80
2018-05-21T00:09:38.810Z,2.10
2018-05-21T00:12:06.071Z,2.10
2018-05-21T00:14:33.380Z,2.00
2018-05-21T00:17:00.627Z,1.97
2018-05-21T00:19:27.911Z,1.87
2018-05-21T00:21:55.167Z,2.00
2018-05-21T00:24:22.450Z,2.00
2018-05-21T00:26:49.716Z,1.93
2018-05-21T00:29:16.990Z,1.70
2018-05-21T00:31:44.253Z,2.20
2018-05-21T00:34:11.520Z,2.60
2018-05-21T00:36:38.779Z,2.27
2018-05-21T00:39:06.053Z,2.20
2018-05-21T00:41:33.314Z,2.20
2018-05-21T00:44:00.595Z,2.00
2018-05-21T00:46:27.855Z,1.90
2018-05-21T00:48:55.107Z,2.10
2018-05-21T00:51:22.400Z,1.80
2018-05-21T00:53:49.648Z,2.07
2018-05-21T00:56:16.931Z,2.10
2018-05-21T00:58:44.183Z,2.17
2018-05-21T01:01:11.461Z,2.17
2018-05-21T01:03:38.708Z,2.20
2018-05-21T01:06:05.997Z,2.00
2018-05-21T01:08:33.256Z,1.60
2018-05-21T01:11:00.512Z,1.97
2018-05-21T01:13:27.793Z,2.53
2018-05-21T01:15:55.036Z,2.10
2018-05-21T01:18:22.303Z,1.97
2018-05-21T01:20:49.551Z,2.47
2018-05-21T01:23:16.834Z,2.20
2018-05-21T01:25:44.127Z,2.40
2018-05-21T01:28:11.413Z,2.57
2018-05-21T01:30:38.659Z,2.40
2018-05-21T01:33:05.933Z,2.33
2018-05-21T01:35:33.243Z,2.30
2018-05-21T01:38:00.495Z,2.50
2018-05-21T01:40:27.773Z,2.57
2018-05-21T01:42:55.019Z,2.57
2018-05-21T01:45:22.287Z,2.70
2018-05-21T01:47:49.557Z,2.23
2018-05-21T01:50:16.811Z,2.30
2018-05-21T01:52:44.121Z,2.20
2018-05-21T01:55:11.376Z,2.13
2018-05-21T01:57:38.658Z,2.33
2018-05-21T02:00:05.907Z,2.40
2018-05-21T02:02:33.192Z,3.00
2018-05-21T02:05:00.472Z,2.73
2018-05-21T02:07:27.728Z,2.93
2018-05-21T02:09:55.006Z,2.70
2018-05-21T02:12:22.269Z,2.60
2018-05-21T02:14:49.543Z,2.90
2018-05-21T02:17:16.867Z,2.27
2018-05-21T02:19:44.145Z,2.70
2018-05-21T02:22:11.407Z,2.50
2018-05-21T02:24:38.680Z,2.33
2018-05-21T02:27:05.963Z,2.77
2018-05-21T02:29:33.207Z,2.67
2018-05-21T02:32:00.462Z,2.90
2018-05-21T02:34:27.737Z,2.73
2018-05-21T02:36:54.999Z,2.43
2018-05-21T02:39:22.275Z,2.93
2018-05-21T02:41:49.544Z,2.77
2018-05-21T02:44:16.846Z,3.07
2018-05-21T02:46:44.104Z,3.37
2018-05-21T02:49:11.363Z,2.77
2018-05-21T02:51:38.643Z,2.87
2018-05-21T02:54:05.891Z,3.23
2018-05-21T02:56:33.171Z,3.27
2018-05-21T02:59:00.428Z,2.83
2018-05-21T03:01:27.707Z,3.80
2018-05-21T03:03:54.964Z,3.10
2018-05-21T03:06:22.214Z,3.70
2018-05-21T03:08:49.494Z,3.13
2018-05-21T03:11:16.755Z,3.63
2018-05-21T03:13:44.040Z,3.30
2018-05-21T03:16:11.311Z,3.73
2018-05-21T03:18:38.578Z,2.80
2018-05-21T03:21:05.832Z,3.33
2018-05-21T03:23:33.106Z,3.00
2018-05-21T03:26:00.390Z,3.43
2018-05-21T03:28:27.677Z,3.77
2018-05-21T03:30:54.978Z,4.30
2018-05-21T03:33:22.252Z,3.43
2018-05-21T03:35:49.534Z,3.60
2018-05-21T03:38:16.791Z,3.77
2018-05-21T03:40:44.096Z,3.30
2018-05-21T03:43:11.449Z,3.70
2018-05-21T03:45:38.700Z,3.13
2018-05-21T03:48:06.023Z,3.67
2018-05-21T03:50:33.279Z,3.73
2018-05-21T03:53:00.563Z,3.93
2018-05-21T03:55:27.856Z,3.27
2018-05-21T03:57:55.171Z,3.90
2018-05-21T04:00:28.739Z,4.20
2018-05-21T04:03:01.890Z,3.37
2018-05-21T04:05:29.142Z,3.47
2018-05-21T04:07:56.396Z,4.10
2018-05-21T04:10:23.677Z,3.87
2018-05-21T04:12:50.979Z,3.90
2018-05-21T04:15:18.260Z,4.30
2018-05-21T04:17:45.507Z,4.10
2018-05-21T04:20:12.786Z,4.13
2018-05-21T04:22:40.039Z,4.10
2018-05-21T04:25:07.328Z,3.93
2018-05-21T04:27:34.578Z,3.60
2018-05-21T04:30:01.863Z,4.10
2018-05-21T04:32:29.128Z,3.70
2018-05-21T04:34:56.383Z,4.53
2018-05-21T04:37:23.658Z,4.27
2018-05-21T04:39:50.932Z,4.20
2018-05-21T04:42:18.219Z,4.43
2018-05-21T04:44:45.502Z,4.10
2018-05-21T04:47:12.768Z,4.40
2018-05-21T04:49:40.018Z,4.13
2018-05-21T04:52:07.308Z,5.10
2018-05-21T04:54:34.575Z,4.50
2018-05-21T04:57:01.855Z,5.00
2018-05-21T04:59:29.112Z,4.43
2018-05-21T05:01:56.387Z,4.77
2018-05-21T05:04:23.654Z,4.40
2018-05-21T05:06:50.929Z,5.00
2018-05-21T05:09:18.184Z,5.30
2018-05-21T05:11:45.448Z,4.50
2018-05-21T05:14:12.733Z,4.87
2018-05-21T05:16:40.071Z,4.47
2018-05-21T05:19:07.430Z,4.90
2018-05-21T05:21:34.796Z,5.43
2018-05-21T05:24:02.070Z,5.00
2018-05-21T05:26:29.317Z,5.40
2018-05-21T05:28:56.603Z,5.43
2018-05-21T05:31:23.855Z,4.80
2018-05-21T05:33:51.131Z,5.07
2018-05-21T05:36:18.404Z,5.00
2018-05-21T05:38:45.654Z,5.70
2018-05-21T05:41:12.928Z,5.27
2018-05-21T05:43:40.210Z,5.03
2018-05-21T05:46:07.484Z,5.20
2018-05-21T05:48:34.748Z,5.20
2018-05-21T05:51:02.017Z,5.10
2018-05-21T05:53:29.293Z,5.50
2018-05-21T05:55:56.565Z,5.13
2018-05-21T05:58:23.844Z,5.60
2018-05-21T06:00:51.151Z,5.87
2018-05-21T06:03:18.458Z,6.33
2018-05-21T06:05:46.363Z,5.10
2018-05-21T06:08:13.643Z,5.97
2018-05-21T06:10:40.892Z,5.30
2018-05-21T06:13:08.240Z,5.20
2018-05-21T06:15:35.490Z,6.17
2018-05-21T06:18:02.769Z,5.90
2018-05-21T06:20:30.024Z,5.20
2018-05-21T06:22:57.311Z,5.50
2018-05-21T06:25:24.601Z,6.00
2018-05-21T06:27:51.882Z,6.27
2018-05-21T06:30:19.194Z,6.37
2018-05-21T06:32:46.483Z,5.73
2018-05-21T06:35:13.734Z,6.30
2018-05-21T06:37:40.995Z,5.50
2018-05-21T06:40:08.288Z,5.80
2018-05-21T06:42:35.547Z,5.60
2018-05-21T06:45:02.815Z,5.13
2018-05-21T06:47:30.091Z,5.80
2018-05-21T06:49:57.345Z,5.57
2018-05-21T06:52:24.625Z,5.70
2018-05-21T06:54:51.874Z,5.63
2018-05-21T06:57:19.157Z,5.40
2018-05-21T06:59:46.402Z,5.80
2018-05-21T07:02:13.679Z,6.10
2018-05-21T07:04:41.131Z,6.00
2018-05-21T07:07:08.360Z,5.70
2018-05-21T07:09:35.643Z,4.70
2018-05-21T07:12:02.928Z,5.90
2018-05-21T07:14:30.285Z,5.50
2018-05-21T07:16:57.671Z,5.90
2018-05-21T07:19:24.934Z,5.53
2018-05-21T07:21:52.183Z,6.10
2018-05-21T07:24:19.471Z,6.13
2018-05-21T07:26:46.750Z,6.23
2018-05-21T07:29:14.004Z,5.90
2018-05-21T07:31:41.284Z,6.33
2018-05-21T07:34:08.549Z,6.27
2018-05-21T07:36:35.873Z,6.40
2018-05-21T07:39:03.128Z,6.07
2018-05-21T07:41:30.479Z,5.80
2018-05-21T07:43:57.736Z,6.00
2018-05-21T07:46:25.020Z,5.63
2018-05-21T07:48:52.265Z,6.47
2018-05-21T07:51:19.556Z,5.80
2018-05-21T07:53:46.808Z,6.00
2018-05-21T07:56:14.062Z,5.50
2018-05-21T07:58:41.310Z,6.03
2018-05-21T08:01:08.598Z,6.50
2018-05-21T08:03:35.848Z,6.50
2018-05-21T08:06:03.103Z,6.53
2018-05-21T08:08:30.375Z,6.40
2018-05-21T08:10:57.657Z,6.20
2018-05-21T08:13:24.937Z,6.03
2018-05-21T08:15:52.230Z,6.30
2018-05-21T08:18:19.502Z,6.10
2018-05-21T08:20:46.788Z,6.10
2018-05-21T08:23:14.095Z,6.70
2018-05-21T08:25:41.372Z,6.00
2018-05-21T08:28:08.623Z,5.90
2018-05-21T08:30:35.938Z,6.10
2018-05-21T08:33:03.212Z,6.10
2018-05-21T08:35:30.466Z,6.40
2018-05-21T08:37:57.779Z,5.90
2018-05-21T08:40:25.070Z,6.27
2018-05-21T08:42:52.360Z,5.80
2018-05-21T08:45:19.605Z,5.67
2018-05-21T08:47:46.879Z,5.87
2018-05-21T08:50:14.199Z,5.90
2018-05-21T08:52:41.461Z,6.30
2018-05-21T08:55:08.753Z,5.90
2018-05-21T08:57:35.983Z,5.57
2018-05-21T09:00:03.245Z,6.07
2018-05-21T09:02:30.528Z,6.53
2018-05-21T09:04:57.803Z,6.13
2018-05-21T09:07:25.102Z,5.80
2018-05-21T09:09:52.419Z,5.80
2018-05-21T09:12:19.685Z,5.57
2018-05-21T09:14:46.933Z,6.30
2018-05-21T09:17:14.211Z,5.67
2018-05-21T09:19:41.540Z,6.03
2018-05-21T09:22:08.823Z,5.90
2018-05-21T09:24:36.083Z,6.23
2018-05-21T09:27:03.359Z,5.17
2018-05-21T09:29:30.632Z,5.40
2018-05-21T09:31:57.895Z,5.57
2018-05-21T09:34:25.187Z,6.43
2018-05-21T09:36:52.437Z,5.40
2018-05-21T09:39:19.687Z,5.83
2018-05-21T09:41:46.967Z,6.20
2018-05-21T09:44:14.226Z,5.57
2018-05-21T09:46:41.499Z,5.70
2018-05-21T09:49:08.762Z,5.63
2018-05-21T09:51:36.037Z,5.60
2018-05-21T09:54:03.307Z,5.60
2018-05-21T09:56:30.569Z,5.50
2018-05-21T09:58:57.901Z,5.43
2018-05-21T10:01:25.154Z,5.40
2018-05-21T10:03:52.407Z,5.60
2018-05-21T10:06:19.773Z,5.00
2018-05-21T10:08:47.353Z,5.37
2018-05-21T10:11:14.610Z,5.10
2018-05-21T10:13:42.099Z,5.37
2018-05-21T10:16:09.367Z,5.20
2018-05-21T10:18:37.039Z,5.10
2018-05-21T10:21:04.318Z,5.30
2018-05-21T10:23:31.575Z,4.80
2018-05-21T10:25:58.834Z,5.33
2018-05-21T10:28:26.120Z,4.87
2018-05-21T10:30:53.374Z,4.73
2018-05-21T10:33:20.662Z,5.53
2018-05-21T10:35:47.942Z,5.20
2018-05-21T10:38:15.188Z,5.20
2018-05-21T10:40:42.539Z,5.50
2018-05-21T10:43:09.792Z,4.70
2018-05-21T10:45:37.081Z,5.40
2018-05-21T10:48:04.406Z,5.20
2018-05-21T10:50:31.654Z,4.77
2018-05-21T10:52:58.927Z,5.33
2018-05-21T10:55:26.211Z,5.40
2018-05-21T10:57:53.467Z,4.97
2018-05-21T11:00:20.761Z,5.90
2018-05-21T11:02:48.018Z,6.00
2018-05-21T11:05:15.305Z,5.53
2018-05-21T11:07:42.636Z,4.83
2018-05-21T11:10:09.898Z,5.27
2018-05-21T11:12:37.153Z,4.90
2018-05-21T11:15:04.428Z,5.20
2018-05-21T11:17:31.679Z,5.27
2018-05-21T11:19:58.962Z,4.70
2018-05-21T11:22:26.210Z,5.13
2018-05-21T11:24:53.496Z,5.10
2018-05-21T11:27:20.750Z,4.80
2018-05-21T11:29:48.050Z,4.90
2018-05-21T11:32:15.364Z,5.27
2018-05-21T11:34:42.628Z,5.17
2018-05-21T11:37:09.905Z,4.60
2018-05-21T11:39:37.184Z,5.33
2018-05-21T11:42:04.440Z,5.40
2018-05-21T11:44:31.742Z,4.93
2018-05-21T11:46:58.990Z,4.73
2018-05-21T11:49:26.258Z,4.47
2018-05-21T11:51:53.534Z,5.17
2018-05-21T11:54:20.855Z,4.67
2018-05-21T11:56:48.113Z,4.47
2018-05-21T11:59:15.403Z,5.17
2018-05-21T12:01:42.675Z,4.40
2018-05-21T12:04:09.960Z,4.70
2018-05-21T12:06:37.231Z,4.90
2018-05-21T12:09:05.233Z,4.70
2018-05-21T12:11:32.503Z,5.20
2018-05-21T12:13:59.799Z,4.43
2018-05-21T12:16:27.071Z,4.60
2018-05-21T12:18:54.311Z,4.73
2018-05-21T12:21:21.588Z,4.63
2018-05-21T12:23:48.850Z,5.40
2018-05-21T12:26:16.125Z,4.60
2018-05-21T12:28:43.403Z,4.60
2018-05-21T12:31:10.652Z,4.70
2018-05-21T12:33:37.913Z,4.73
2018-05-21T12:36:05.172Z,4.87
2018-05-21T12:38:32.439Z,4.50
2018-05-21T12:40:59.696Z,4.50
2018-05-21T12:43:27.215Z,5.10
2018-05-21T12:45:55.337Z,4.57
2018-05-21T12:48:22.990Z,4.83
2018-05-21T12:50:50.675Z,4.57
2018-05-21T12:53:19.305Z,4.60
2018-05-21T12:55:47.446Z,5.17
2018-05-21T12:58:15.441Z,4.70
2018-05-21T13:00:43.243Z,5.20
2018-05-21T13:03:10.943Z,4.80
2018-05-21T13:05:38.564Z,4.97
2018-05-21T13:08:06.612Z,4.60
2018-05-21T13:10:34.224Z,4.63
2018-05-21T13:13:02.199Z,5.30
2018-05-21T13:15:29.722Z,4.60
2018-05-21T13:17:57.688Z,4.60
2018-05-21T13:20:25.240Z,4.53
2018-05-21T13:22:53.583Z,4.57
2018-05-21T13:25:21.442Z,4.87
2018-05-21T13:27:49.321Z,4.43
2018-05-21T13:30:16.963Z,4.57
2018-05-21T13:32:45.086Z,4.73
2018-05-21T13:35:12.999Z,4.10
2018-05-21T13:37:40.831Z,4.87
2018-05-21T13:40:08.641Z,5.63
2018-05-21T13:42:36.984Z,5.00
2018-05-21T13:45:04.720Z,5.23
2018-05-21T13:47:32.719Z,4.60
2018-05-21T13:50:01.337Z,4.70
2018-05-21T13:52:28.839Z,4.50
2018-05-21T13:54:56.638Z,5.40
2018-05-21T13:57:24.082Z,4.87
2018-05-21T13:59:51.948Z,4.67
2018-05-21T14:02:19.506Z,5.37
2018-05-21T14:04:47.279Z,5.43
2018-05-21T14:07:14.751Z,4.90
2018-05-21T14:09:42.268Z,4.17
2018-05-21T14:12:09.611Z,4.53
2018-05-21T14:14:36.927Z,4.53
2018-05-21T14:17:04.199Z,4.80
2018-05-21T14:19:31.454Z,5.07
2018-05-21T14:21:58.723Z,4.50
2018-05-21T14:24:25.988Z,4.50
2018-05-21T14:26:53.313Z,4.30
2018-05-21T14:29:20.685Z,4.83
2018-05-21T14:31:47.949Z,3.80
2018-05-21T14:34:15.207Z,5.37
2018-05-21T14:36:42.484Z,4.67
2018-05-21T14:39:09.764Z,4.50
2018-05-21T14:41:37.100Z,5.40
2018-05-21T14:44:04.375Z,4.63
2018-05-21T14:46:31.893Z,5.10
2018-05-21T14:48:59.178Z,5.20
2018-05-21T14:51:26.475Z,5.00
2018-05-21T14:53:53.800Z,5.10
2018-05-21T14:56:21.150Z,5.17
2018-05-21T14:58:48.418Z,4.60
2018-05-21T15:01:15.774Z,5.60
2018-05-21T15:03:43.045Z,4.90
2018-05-21T15:06:10.313Z,4.57
2018-05-21T15:08:37.594Z,4.73
2018-05-21T15:11:04.888Z,4.77
2018-05-21T15:13:32.240Z,5.37
2018-05-21T15:15:59.523Z,4.97
2018-05-21T15:18:26.768Z,5.03
2018-05-21T15:20:54.048Z,5.03
2018-05-21T15:23:21.306Z,5.30
2018-05-21T15:25:48.566Z,5.27
2018-05-21T15:28:16.036Z,5.00
2018-05-21T15:30:43.294Z,5.40
2018-05-21T15:33:10.583Z,5.37
2018-05-21T15:35:37.847Z,5.07
2018-05-21T15:38:05.131Z,5.00
2018-05-21T15:40:32.394Z,4.97
2018-05-21T15:42:59.692Z,4.77
2018-05-21T15:45:26.941Z,5.70
2018-05-21T15:47:54.538Z,5.03
2018-05-21T15:50:22.377Z,5.40
2018-05-21T15:52:49.728Z,4.90
2018-05-21T15:55:16.978Z,4.60
2018-05-21T15:57:44.239Z,5.00
2018-05-21T16:00:11.490Z,5.73
2018-05-21T16:02:38.767Z,4.47
2018-05-21T16:05:06.059Z,4.30
2018-05-21T16:07:33.319Z,5.30
2018-05-21T16:10:00.607Z,4.33
2018-05-21T16:12:27.896Z,5.10
2018-05-21T16:14:55.214Z,5.23
2018-05-21T16:17:22.562Z,4.83
2018-05-21T16:19:49.832Z,4.70
2018-05-21T16:22:17.109Z,4.67
2018-05-21T16:24:44.356Z,4.70
2018-05-21T16:27:11.632Z,4.97
2018-05-21T16:29:38.899Z,5.50
2018-05-21T16:32:06.154Z,4.53
2018-05-21T16:34:33.427Z,4.57
2018-05-21T16:37:00.685Z,5.10
2018-05-21T16:39:27.947Z,4.43
2018-05-21T16:41:55.208Z,4.60
2018-05-21T16:44:22.562Z,4.40
2018-05-21T16:46:49.813Z,4.57
2018-05-21T16:49:17.092Z,5.10
2018-05-21T16:51:44.351Z,4.60
2018-05-21T16:54:11.616Z,4.40
2018-05-21T16:56:38.888Z,4.63
2018-05-21T16:59:06.138Z,4.30
2018-05-21T17:01:33.434Z,5.07
2018-05-21T17:04:00.694Z,4.47
2018-05-21T17:06:28.090Z,4.27
2018-05-21T17:08:55.345Z,4.47
2018-05-21T17:11:22.756Z,5.00
2018-05-21T17:13:53.019Z,4.13
2018-05-21T17:16:20.288Z,4.10
2018-05-21T17:18:47.559Z,5.20
2018-05-21T17:21:14.822Z,4.53
2018-05-21T17:23:42.087Z,4.70
2018-05-21T17:26:09.366Z,4.70
2018-05-21T17:28:36.635Z,5.20
2018-05-21T17:31:03.887Z,4.50
2018-05-21T17:33:31.214Z,5.07
2018-05-21T17:35:58.501Z,4.87
2018-05-21T17:38:25.759Z,4.97
2018-05-21T17:40:53.076Z,5.10
2018-05-21T17:43:20.343Z,4.70
2018-05-21T17:45:47.615Z,4.93
2018-05-21T17:48:15.210Z,4.57
2018-05-21T17:50:45.919Z,5.23
2018-05-21T17:53:13.168Z,5.40
2018-05-21T17:55:40.466Z,5.60
2018-05-21T17:58:07.715Z,4.73
2018-05-21T18:00:34.982Z,4.83
2018-05-21T18:03:02.275Z,4.63
2018-05-21T18:05:29.517Z,4.80
2018-05-21T18:07:56.787Z,4.80
2018-05-21T18:10:24.059Z,5.00
2018-05-21T18:12:51.319Z,5.23
2018-05-21T18:15:18.596Z,5.47
2018-05-21T18:17:45.852Z,5.40
2018-05-21T18:20:13.133Z,4.80
2018-05-21T18:22:40.385Z,5.03
2018-05-21T18:25:07.719Z,6.03
2018-05-21T18:27:35.096Z,5.70
2018-05-21T18:30:02.438Z,5.10
2018-05-21T18:32:29.715Z,5.50
2018-05-21T18:34:57.062Z,5.83
2018-05-21T18:37:24.616Z,5.77
2018-05-21T18:39:51.864Z,5.20
2018-05-21T18:42:19.180Z,6.23
2018-05-21T18:44:46.479Z,6.20
2018-05-21T18:47:13.732Z,5.80
2018-05-21T18:49:41.086Z,5.90
2018-05-21T18:52:08.342Z,6.10
2018-05-21T18:54:35.669Z,6.53
2018-05-21T18:57:02.957Z,5.67
2018-05-21T18:59:30.312Z,5.97
2018-05-21T19:01:57.562Z,5.87
2018-05-21T19:04:24.920Z,5.90
2018-05-21T19:06:52.196Z,6.10
2018-05-21T19:09:19.542Z,6.90
2018-05-21T19:11:46.806Z,5.90
2018-05-21T19:14:14.054Z,6.13
2018-05-21T19:16:41.396Z,6.13
2018-05-21T19:19:08.662Z,6.37
2018-05-21T19:21:36.000Z,6.63
2018-05-21T19:24:03.634Z,6.37
2018-05-21T19:26:31.088Z,7.10
2018-05-21T19:28:58.387Z,6.00
2018-05-21T19:31:25.642Z,6.53
2018-05-21T19:33:52.895Z,6.77
2018-05-21T19:36:20.239Z,6.10
2018-05-21T19:38:47.587Z,7.33
2018-05-21T19:41:14.943Z,5.80
2018-05-21T19:43:42.296Z,6.10
2018-05-21T19:46:09.663Z,6.30
2018-05-21T19:48:36.916Z,6.63
2018-05-21T19:51:04.183Z,5.43
2018-05-21T19:53:31.436Z,6.20
2018-05-21T19:55:58.799Z,6.40
2018-05-21T19:58:28.164Z,6.60
2018-05-21T20:00:56.547Z,6.00
2018-05-21T20:03:25.460Z,6.93
2018-05-21T20:05:53.167Z,6.00
2018-05-21T20:08:22.205Z,7.10
2018-05-21T20:10:49.990Z,5.93
2018-05-21T20:13:17.535Z,7.07
2018-05-21T20:15:44.819Z,6.93
2018-05-21T20:18:12.147Z,5.40
2018-05-21T20:20:42.358Z,6.27
2018-05-21T20:23:09.639Z,6.57
2018-05-21T20:25:36.894Z,7.20
2018-05-21T20:28:04.179Z,6.40
2018-05-21T20:30:31.439Z,8.10
2018-05-21T20:32:58.718Z,5.97
2018-05-21T20:35:25.983Z,6.10
2018-05-21T20:37:53.354Z,5.90
2018-05-21T20:40:20.611Z,6.93
2018-05-21T20:42:47.951Z,6.50
2018-05-21T20:45:15.248Z,6.63
2018-05-21T20:47:42.467Z,6.40
2018-05-21T20:50:09.818Z,6.10
2018-05-21T20:52:37.074Z,7.43
2018-05-21T20:55:04.343Z,6.63
2018-05-21T20:57:31.614Z,6.70
2018-05-21T20:59:58.863Z,7.13
2018-05-21T21:02:26.135Z,7.90
2018-05-21T21:04:53.433Z,6.50
2018-05-21T21:07:20.694Z,6.93
2018-05-21T21:09:47.967Z,7.00
2018-05-21T21:12:15.231Z,6.70
2018-05-21T21:14:42.491Z,6.80
2018-05-21T21:17:09.813Z,7.00
2018-05-21T21:19:37.058Z,6.73
2018-05-21T21:22:04.349Z,6.90
2018-05-21T21:24:31.630Z,6.37
2018-05-21T21:26:58.899Z,6.83
2018-05-21T21:29:26.175Z,7.20
2018-05-21T21:31:53.958Z,6.70
2018-05-21T21:34:21.295Z,7.17
2018-05-21T21:36:48.551Z,7.20
2018-05-21T21:39:15.999Z,6.20
2018-05-21T21:41:43.271Z,8.20
2018-05-21T21:44:10.520Z,7.20
2018-05-21T21:46:37.782Z,6.90
2018-05-21T21:49:05.038Z,7.60
2018-05-21T21:51:32.372Z,6.83
2018-05-21T21:53:59.638Z,7.07
2018-05-21T21:56:26.992Z,7.10
2018-05-21T21:58:54.345Z,6.53
2018-05-21T22:01:21.630Z,7.20
2018-05-21T22:03:48.917Z,6.47
2018-05-21T22:06:16.204Z,6.70
2018-05-21T22:08:43.497Z,7.00
2018-05-21T22:11:10.754Z,7.33
2018-05-21T22:13:38.051Z,6.10
2018-05-21T22:16:05.328Z,7.47
2018-05-21T22:18:32.584Z,5.80
2018-05-21T22:20:59.923Z,6.30
2018-05-21T22:23:27.188Z,6.67
2018-05-21T22:25:54.464Z,6.30
2018-05-21T22:28:21.790Z,5.73
2018-05-21T22:30:49.070Z,6.80
2018-05-21T22:33:16.354Z,5.60
2018-05-21T22:35:43.600Z,6.60
2018-05-21T22:38:10.877Z,6.27
2018-05-21T22:40:38.147Z,5.57
2018-05-21T22:43:05.423Z,5.53
2018-05-21T22:45:32.667Z,6.23
2018-05-21T22:47:59.934Z,6.20
2018-05-21T22:50:27.189Z,7.30
2018-05-21T22:52:54.459Z,6.20
2018-05-21T22:55:21.710Z,6.63
2018-05-21T22:57:48.996Z,5.20
2018-05-21T23:00:16.277Z,6.27
2018-05-21T23:02:43.538Z,6.30
2018-05-21T23:05:10.819Z,5.80
2018-05-21T23:07:38.086Z,6.20
2018-05-21T23:10:05.359Z,5.50
2018-05-21T23:12:32.643Z,6.20
2018-05-21T23:14:59.901Z,6.50
2018-05-21T23:17:27.170Z,6.60
2018-05-21T23:19:54.420Z,6.87
2018-05-21T23:22:21.701Z,6.50
2018-05-21T23:24:48.968Z,6.20
2018-05-21T23:27:16.274Z,6.63
2018-05-21T23:29:43.516Z,5.97
2018-05-21T23:32:10.763Z,6.43
2018-05-21T23:34:38.045Z,7.20
2018-05-21T23:37:05.293Z,6.90
2018-05-21T23:39:32.559Z,7.20
2018-05-21T23:41:59.898Z,6.57
2018-05-21T23:44:27.167Z,6.20
2018-05-21T23:46:54.450Z,6.50
2018-05-21T23:49:21.711Z,6.60
2018-05-21T23:51:48.966Z,6.37
2018-05-21T23:54:16.244Z,7.17
2018-05-21T23:56:43.530Z,7.40
2018-05-21T23:59:10.809Z,7.13
